Time;durP1;ratioP1;P1;durP2;ratioP2;P2;SDS_P1;SDS_P2;PMS_P1;PMS_P2;Temp;Humidity;BMP_temperature;BMP_pressure;BME280_temperature;BME280_humidity;BME280_pressure;Samples;Min_cycle;Max_cycle;Signal;HPM_P1;HPM_P2
2022/06/01 00:03:43;;;;;;;8.18;4.40;;;;;;;20.40;100.00;100056.81;4638290;28;10001724;-75
2022/06/01 00:06:10;;;;;;;11.48;4.20;;;;;;;20.34;100.00;100031.38;5015703;28;20406;-75
2022/06/01 00:08:36;;;;;;;9.82;4.57;;;;;;;19.68;100.00;100027.13;5021780;28;20033;-74
2022/06/01 00:11:01;;;;;;;9.45;4.57;;;;;;;20.39;100.00;100031.88;5035447;28;20035;-75
2022/06/01 00:13:27;;;;;;;7.93;4.50;;;;;;;20.02;100.00;100077.38;5035396;28;20476;-75
2022/06/01 00:15:53;;;;;;;6.68;4.35;;;;;;;20.16;100.00;100079.06;5035566;28;20518;-75
2022/06/01 00:18:19;;;;;;;6.97;3.78;;;;;;;20.28;100.00;100071.34;5017562;28;20021;-75
2022/06/01 00:20:46;;;;;;;7.78;4.15;;;;;;;20.11;100.00;100070.75;5035006;28;20030;-76
2022/06/01 00:23:12;;;;;;;6.53;4.38;;;;;;;19.68;100.00;100037.44;5017648;28;20052;-74
2022/06/01 00:25:37;;;;;;;6.07;4.07;;;;;;;19.69;100.00;100074.38;5035030;28;20037;-75
2022/06/01 00:28:03;;;;;;;8.05;4.72;;;;;;;19.13;100.00;100034.09;5035512;28;20033;-75
2022/06/01 00:30:29;;;;;;;7.20;4.53;;;;;;;19.52;100.00;100056.56;5034697;28;20087;-75
2022/06/01 00:32:54;;;;;;;8.55;4.65;;;;;;;19.35;100.00;100059.38;5017072;28;20041;-76
2022/06/01 00:35:23;;;;;;;6.95;4.25;;;;;;;19.36;100.00;100071.34;5034486;28;20116;-75
2022/06/01 00:37:48;;;;;;;7.25;5.00;;;;;;;19.41;100.00;100061.59;5034972;28;20396;-73
2022/06/01 00:40:16;;;;;;;7.57;5.03;;;;;;;19.33;100.00;100056.88;5034434;28;20090;-75
2022/06/01 00:42:44;;;;;;;8.07;5.20;;;;;;;19.04;100.00;100019.16;5034751;28;20045;-77
2022/06/01 00:45:12;;;;;;;6.30;4.32;;;;;;;19.34;100.00;100052.56;5034523;28;20099;-75
2022/06/01 00:47:38;;;;;;;8.60;5.03;;;;;;;19.53;100.00;100053.06;5034484;28;20033;-75
2022/06/01 00:50:11;;;;;;;6.63;5.22;;;;;;;19.41;100.00;100057.22;5016858;28;20140;-76
2022/06/01 00:52:40;;;;;;;6.63;5.20;;;;;;;19.49;100.00;100030.97;5033928;28;20029;-77
2022/06/01 00:55:18;;;;;;;8.50;5.60;;;;;;;19.32;100.00;100021.69;5034693;28;20030;-75
2022/06/01 00:57:48;;;;;;;9.25;6.45;;;;;;;19.20;100.00;100008.72;5034221;28;20030;-75
2022/06/01 01:00:25;;;;;;;8.05;6.57;;;;;;;19.60;100.00;100046.59;5016710;28;20033;-75
2022/06/01 01:02:53;;;;;;;12.40;6.28;;;;;;;19.59;100.00;100050.09;5034429;28;20045;-75
2022/06/01 01:05:19;;;;;;;9.02;6.55;;;;;;;19.13;100.00;99981.69;5034206;28;20614;-75
2022/06/01 01:07:45;;;;;;;11.75;6.60;;;;;;;19.87;100.00;100047.38;5030591;28;20108;-75
2022/06/01 01:10:14;;;;;;;10.18;6.65;;;;;;;19.67;100.00;100047.84;5029956;28;20080;-75
2022/06/01 01:12:59;;;;;;;11.07;6.28;;;;;;;19.51;100.00;100042.81;5033971;28;20030;-76
2022/06/01 01:15:39;;;;;;;9.73;6.97;;;;;;;19.70;100.00;100052.81;5015206;28;20033;-75
2022/06/01 01:18:09;;;;;;;11.15;7.03;;;;;;;19.71;100.00;100052.69;5016501;28;20091;-75
2022/06/01 01:20:43;;;;;;;10.57;7.45;;;;;;;19.39;100.00;100011.84;5016431;28;20030;-75
2022/06/01 01:23:18;;;;;;;14.35;7.32;;;;;;;18.98;100.00;100033.28;5034016;28;20091;-77
2022/06/01 01:25:44;;;;;;;12.02;7.50;;;;;;;18.83;100.00;100028.22;5033854;28;20527;-77
2022/06/01 01:28:10;;;;;;;13.75;8.35;;;;;;;18.76;100.00;99991.69;5033662;28;20053;-75
2022/06/01 01:30:38;;;;;;;12.18;8.02;;;;;;;19.11;100.00;100024.78;5009520;28;20060;-76
2022/06/01 01:33:05;;;;;;;11.43;7.78;;;;;;;19.00;100.00;100012.56;5013696;28;20111;-76
2022/06/01 01:35:30;;;;;;;9.88;7.35;;;;;;;18.81;100.00;99996.59;5013752;28;20083;-76
2022/06/01 01:38:01;;;;;;;12.18;7.53;;;;;;;19.07;100.00;100020.75;5013416;28;20117;-77
2022/06/01 01:40:26;;;;;;;12.85;7.72;;;;;;;19.01;100.00;100004.72;5013638;28;20030;-75
2022/06/01 01:42:57;;;;;;;10.15;7.30;;;;;;;19.01;100.00;100032.25;4996688;28;20033;-75
2022/06/01 01:45:29;;;;;;;11.27;6.93;;;;;;;18.84;100.00;100028.13;5013827;28;20105;-76
2022/06/01 01:47:55;;;;;;;12.50;7.63;;;;;;;19.34;100.00;100032.75;5006542;28;20412;-75
2022/06/01 01:50:22;;;;;;;10.68;7.22;;;;;;;19.01;100.00;100030.50;5033429;28;20029;-76
2022/06/01 01:52:48;;;;;;;10.27;7.18;;;;;;;19.20;100.00;100021.63;5033261;28;20032;-75
2022/06/01 01:55:47;;;;;;;8.90;7.07;;;;;;;18.91;100.00;100021.69;5033306;28;20037;-75
2022/06/01 01:58:27;;;;;;;10.65;7.88;;;;;;;19.15;100.00;100033.97;5032835;28;20503;-75
2022/06/01 02:00:58;;;;;;;11.98;7.15;;;;;;;19.18;100.00;100033.78;5015345;28;20040;-75
2022/06/01 02:03:42;;;;;;;10.70;6.95;;;;;;;18.88;100.00;100000.41;5015396;28;20103;-75
2022/06/01 02:06:37;;;;;;;10.63;6.97;;;;;;;19.79;100.00;100036.72;5015483;28;20414;-76
2022/06/01 02:09:08;;;;;;;12.40;7.45;;;;;;;19.66;100.00;100039.28;5032350;28;20114;-75
2022/06/01 02:14:33;;;;;;;8.10;6.18;;;;;;;19.40;100.00;100045.28;5030625;28;20052;-73
2022/06/01 02:17:20;;;;;;;9.48;6.53;;;;;;;19.23;100.00;100011.13;5032345;28;20060;-76
2022/06/01 02:20:02;;;;;;;9.80;6.88;;;;;;;18.82;100.00;99969.88;5015288;28;20156;-75
2022/06/01 02:22:27;;;;;;;9.25;6.57;;;;;;;19.19;100.00;99995.03;5032138;28;20058;-75
2022/06/01 02:24:53;;;;;;;10.45;5.97;;;;;;;19.24;100.00;99995.56;5032447;28;20483;-74
2022/06/01 02:27:19;;;;;;;8.35;6.20;;;;;;;19.09;100.00;100008.59;5014362;28;20083;-73
2022/06/01 02:29:50;;;;;;;9.73;5.72;;;;;;;19.50;100.00;100041.19;5031667;28;20038;-76
2022/06/01 02:32:17;;;;;;;9.25;6.53;;;;;;;19.21;100.00;100018.13;5032045;28;20035;-73
2022/06/01 02:34:44;;;;;;;10.25;7.20;;;;;;;19.24;100.00;100030.81;5031356;28;20030;-75
2022/06/01 02:37:14;;;;;;;9.77;7.10;;;;;;;19.03;100.00;99997.72;5031943;28;20025;-75
2022/06/01 02:39:44;;;;;;;11.10;7.63;;;;;;;19.08;100.00;100035.28;5031813;28;20036;-74
2022/06/01 02:42:31;;;;;;;14.80;9.07;;;;;;;18.94;100.00;100002.63;5031759;28;20095;-75
2022/06/01 02:45:04;;;;;;;13.43;8.38;;;;;;;18.73;100.00;100019.41;5032284;28;20040;-74
2022/06/01 02:47:31;;;;;;;12.60;7.50;;;;;;;19.09;100.00;100035.19;5013892;28;20036;-74
2022/06/01 02:49:57;;;;;;;9.18;6.80;;;;;;;18.99;100.00;100045.22;5014234;28;20059;-75
2022/06/01 02:52:23;;;;;;;14.95;7.30;;;;;;;19.24;100.00;100052.28;5014813;28;20041;-73
2022/06/01 02:54:49;;;;;;;8.95;6.72;;;;;;;18.90;100.00;100045.78;5011590;28;20060;-74
2022/06/01 02:57:14;;;;;;;8.38;6.88;;;;;;;18.87;100.00;100040.84;5011896;28;20456;-75
2022/06/01 02:59:41;;;;;;;8.15;7.00;;;;;;;18.70;100.00;100040.19;5011481;28;20121;-73
2022/06/01 03:02:09;;;;;;;10.65;7.43;;;;;;;18.54;100.00;100044.63;4994371;28;20503;-74
2022/06/01 03:04:36;;;;;;;18.02;14.65;;;;;;;18.52;100.00;100011.22;5011956;28;20121;-73
2022/06/01 03:07:02;;;;;;;16.67;12.45;;;;;;;18.78;100.00;100038.81;4994328;28;20512;-74
2022/06/01 03:09:29;;;;;;;14.98;11.10;;;;;;;18.44;100.00;99989.44;5011715;28;20053;-74
2022/06/01 03:11:55;;;;;;;13.38;10.27;;;;;;;18.66;100.00;100044.69;5011674;28;20088;-73
2022/06/01 03:14:21;;;;;;;14.93;10.48;;;;;;;18.86;100.00;100008.25;4994869;28;20488;-73
2022/06/01 03:16:46;;;;;;;17.08;10.82;;;;;;;18.66;100.00;100013.78;5015696;28;20064;-74
2022/06/01 03:19:12;;;;;;;15.27;11.88;;;;;;;18.50;100.00;100007.91;5017353;28;20025;-74
2022/06/01 03:21:38;;;;;;;15.65;10.55;;;;;;;18.69;100.00;100049.69;5034731;28;20032;-72
2022/06/01 03:24:05;;;;;;;13.70;10.43;;;;;;;18.61;100.00;100020.97;5030915;28;20126;-73
2022/06/01 03:26:31;;;;;;;12.48;9.60;;;;;;;18.92;100.00;100051.69;5019287;28;20159;-73
2022/06/01 03:28:56;;;;;;;11.38;9.80;;;;;;;18.88;100.00;100029.59;5015043;28;20500;-74
2022/06/01 03:31:22;;;;;;;13.93;8.82;;;;;;;18.75;100.00;99997.78;5015930;28;20076;-74
2022/06/01 03:33:47;;;;;;;16.15;9.75;;;;;;;19.54;100.00;100045.22;5025424;28;20404;-75
2022/06/01 03:36:13;;;;;;;11.70;9.13;;;;;;;19.32;100.00;100049.22;5015764;28;20058;-79
2022/06/01 03:38:38;;;;;;;10.80;7.80;;;;;;;19.71;100.00;100063.03;5015988;28;20136;-85
2022/06/01 03:41:04;;;;;;;9.85;8.02;;;;;;;19.75;100.00;100061.06;5016913;28;20026;-81
2022/06/01 03:43:30;;;;;;;11.43;7.85;;;;;;;19.39;100.00;100063.44;5015598;28;20026;-76
2022/06/01 03:45:57;;;;;;;11.93;7.38;;;;;;;19.49;100.00;100067.09;4999098;28;20032;-77
2022/06/01 03:48:24;;;;;;;10.20;7.22;;;;;;;19.59;100.00;100032.84;5016476;28;20040;-75
2022/06/01 03:50:51;;;;;;;10.77;7.07;;;;;;;19.92;100.00;100050.50;5015652;28;20030;-76
2022/06/01 03:53:16;;;;;;;7.82;6.70;;;;;;;19.84;100.00;100050.16;5015708;28;20032;-71
2022/06/01 03:55:42;;;;;;;9.55;6.35;;;;;;;19.93;100.00;100083.13;5016688;28;20030;-75
2022/06/01 03:58:12;;;;;;;12.15;7.03;;;;;;;19.99;100.00;100081.88;5034997;28;20026;-76
2022/06/01 04:00:38;;;;;;;8.23;6.47;;;;;;;20.11;100.00;100084.50;5035183;28;20032;-75
2022/06/01 04:03:03;;;;;;;8.73;6.53;;;;;;;20.12;100.00;100081.00;5005071;28;20516;-79
2022/06/01 04:05:29;;;;;;;8.80;6.55;;;;;;;20.30;100.00;100081.59;5035936;28;20032;-75
2022/06/01 04:07:55;;;;;;;10.35;7.18;;;;;;;20.02;100.00;100059.31;5017423;28;20116;-75
2022/06/01 04:10:20;;;;;;;12.38;9.15;;;;;;;20.22;100.00;100069.19;5016960;28;20488;-73
2022/06/01 04:12:46;;;;;;;14.32;9.10;;;;;;;20.24;100.00;100057.00;5034562;28;20580;-71
2022/06/01 04:15:12;;;;;;;14.32;9.07;;;;;;;20.24;100.00;100061.34;5035401;28;20040;-74
2022/06/01 04:17:38;;;;;;;12.65;7.90;;;;;;;20.12;100.00;100077.59;5034140;28;20033;-73
2022/06/01 04:20:05;;;;;;;13.90;7.60;;;;;;;20.37;100.00;100081.06;5034183;28;20087;-79
2022/06/01 04:22:31;;;;;;;9.65;6.95;;;;;;;20.45;100.00;100075.38;5018252;28;20095;-76
2022/06/01 04:24:56;;;;;;;11.38;6.70;;;;;;;20.58;100.00;100084.78;5034301;28;20053;-73
2022/06/01 04:27:22;;;;;;;15.13;8.90;;;;;;;20.13;100.00;100051.66;5034295;28;20121;-77
2022/06/01 04:29:48;;;;;;;12.15;8.75;;;;;;;19.87;100.00;100088.66;5035531;28;20036;-75
2022/06/01 04:32:32;;;;;;;12.35;8.70;;;;;;;20.10;100.00;100082.88;5035225;28;20033;-78
2022/06/01 04:34:58;;;;;;;11.90;9.75;;;;;;;19.93;100.00;100062.47;5035319;28;20075;-75
2022/06/01 04:37:24;;;;;;;17.38;10.00;;;;;;;20.08;100.00;100025.34;5016853;28;20018;-72
2022/06/01 04:39:49;;;;;;;12.65;9.45;;;;;;;20.45;100.00;100021.97;5033749;28;20033;-76
2022/06/01 04:42:15;;;;;;;12.23;10.30;;;;;;;20.27;100.00;100082.59;5034239;28;20104;-76
2022/06/01 04:44:40;;;;;;;13.63;10.55;;;;;;;20.53;100.00;100068.78;5013410;28;20069;-74
2022/06/01 04:47:06;;;;;;;16.25;11.80;;;;;;;20.53;100.00;100068.78;5034608;28;20132;-76
2022/06/01 04:49:31;;;;;;;12.93;10.77;;;;;;;20.63;100.00;100074.16;5017070;28;20152;-77
2022/06/01 04:51:57;;;;;;;15.57;11.50;;;;;;;20.48;100.00;100082.94;5014401;28;20038;-77
2022/06/01 04:54:22;;;;;;;14.43;10.50;;;;;;;20.84;100.00;100071.88;4996412;28;20685;-78
2022/06/01 04:56:48;;;;;;;17.58;10.98;;;;;;;21.23;100.00;100085.50;5011980;28;20381;-73
2022/06/01 04:59:17;;;;;;;12.45;11.15;;;;;;;21.19;100.00;100083.22;5013384;28;20584;-77
2022/06/01 05:01:43;;;;;;;12.90;10.52;;;;;;;21.29;100.00;100082.44;4995221;28;20073;-78
2022/06/01 05:04:09;;;;;;;14.05;10.77;;;;;;;20.88;100.00;100078.50;4995594;28;20041;-76
2022/06/01 05:06:35;;;;;;;10.38;8.93;;;;;;;20.89;100.00;100088.72;4995187;28;20061;-74
2022/06/01 05:09:00;;;;;;;11.52;8.90;;;;;;;21.50;100.00;100093.03;5013009;28;20030;-77
2022/06/01 05:11:25;;;;;;;12.18;9.20;;;;;;;21.12;100.00;100077.63;5013778;28;20119;-76
2022/06/01 05:13:51;;;;;;;14.23;9.30;;;;;;;21.83;100.00;100095.84;5012878;28;20037;-77
2022/06/01 05:16:16;;;;;;;14.07;9.50;;;;;;;21.40;100.00;100064.41;5013520;28;20034;-79
2022/06/01 05:18:42;;;;;;;15.18;9.32;;;;;;;21.90;100.00;100093.63;4995380;28;20587;-75
2022/06/01 05:21:07;;;;;;;12.75;8.93;;;;;;;21.99;100.00;100074.81;4995401;28;20033;-77
2022/06/01 05:23:33;;;;;;;21.27;9.40;;;;;;;22.59;100.00;100103.16;5013344;28;20030;-75
2022/06/01 05:25:59;;;;;;;13.02;8.73;;;;;;;22.87;100.00;100095.78;5013619;28;20546;-76
2022/06/01 05:28:29;;;;;;;11.07;8.68;;;;;;;22.06;100.00;100082.06;5014075;28;20117;-78
2022/06/01 05:30:56;;;;;;;10.40;8.48;;;;;;;23.00;100.00;100087.84;5014263;28;20500;-77
2022/06/01 05:33:22;;;;;;;18.08;8.48;;;;;;;23.41;100.00;100097.63;5014257;28;20117;-77
2022/06/01 05:35:47;;;;;;;11.32;8.93;;;;;;;23.22;100.00;100103.41;5013970;28;20133;-78
2022/06/01 05:38:13;;;;;;;12.15;8.50;;;;;;;23.73;100.00;100086.31;4996048;28;20393;-78
2022/06/01 05:40:38;;;;;;;12.57;7.95;;;;;;;23.77;100.00;100099.91;5013832;28;20034;-77
2022/06/01 05:43:09;;;;;;;11.57;8.60;;;;;;;23.16;100.00;100091.75;5013911;28;20089;-77
2022/06/01 05:45:35;;;;;;;;;;;;;;;23.53;100.00;100109.66;5014008;28;20099;-77
2022/06/01 05:48:00;;;;;;;10.68;7.30;;;;;;;23.60;100.00;100111.63;5013743;28;20395;-78
2022/06/01 05:50:26;;;;;;;8.68;7.60;;;;;;;23.68;100.00;100077.25;5014221;28;20033;-79
2022/06/01 05:52:51;;;;;;;11.40;7.85;;;;;;;24.21;100.00;100091.09;5014000;28;20116;-79
2022/06/01 05:55:16;;;;;;;9.50;7.57;;;;;;;24.00;100.00;100112.69;5013714;28;20037;-78
2022/06/01 05:57:42;;;;;;;11.05;7.43;;;;;;;24.30;100.00;100090.34;5014187;28;20061;-78
2022/06/01 06:00:10;;;;;;;11.60;7.30;;;;;;;24.29;100.00;100115.50;4996310;28;20041;-78
2022/06/01 06:02:37;;;;;;;11.25;6.63;;;;;;;24.81;100.00;100115.44;4995848;28;20137;-77
2022/06/01 06:06:11;;;;;;;13.63;6.32;;;;;;;25.29;100.00;100080.97;4996073;28;20037;-78
2022/06/01 06:07:49;;;;;;;7.97;6.60;;;;;;;24.74;100.00;100090.09;5013689;28;20148;-79
2022/06/01 06:10:14;;;;;;;12.05;7.28;;;;;;;24.54;100.00;100090.91;4996393;28;20615;-78
2022/06/01 06:12:41;;;;;;;10.25;6.63;;;;;;;24.76;100.00;100054.38;5014206;28;20060;-79
2022/06/01 06:15:07;;;;;;;9.73;6.10;;;;;;;25.02;100.00;100115.38;5013110;28;20041;-77
2022/06/01 06:17:32;;;;;;;9.27;6.07;;;;;;;25.32;100.00;100112.75;5013748;28;20030;-76
2022/06/01 06:19:58;;;;;;;7.97;5.93;;;;;;;25.92;100.00;100090.09;5012963;28;20030;-75
2022/06/01 06:22:25;;;;;;;6.85;6.05;;;;;;;25.04;100.00;100082.25;5012470;28;20018;-75
2022/06/01 06:24:51;;;;;;;11.15;6.00;;;;;;;26.13;100.00;100112.47;5012641;28;20044;-75
2022/06/01 06:27:17;;;;;;;7.50;5.68;;;;;;;25.39;100.00;100098.25;5012738;28;20041;-74
2022/06/01 06:29:42;;;;;;;8.57;6.30;;;;;;;25.87;100.00;100120.97;4995725;28;20499;-76
2022/06/01 06:32:08;;;;;;;12.70;6.03;;;;;;;26.05;100.00;100112.31;5012763;28;20061;-76
2022/06/01 06:34:33;;;;;;;10.15;5.45;;;;;;;26.46;100.00;100112.00;5012072;28;20479;-74
2022/06/01 06:36:59;;;;;;;11.98;5.70;;;;;;;26.48;100.00;100114.50;5012529;28;20057;-75
2022/06/01 06:39:24;;;;;;;14.23;5.82;;;;;;;26.74;100.00;100078.22;5012559;28;20029;-76
2022/06/01 06:41:49;;;;;;;8.68;5.88;;;;;;;26.01;100.00;100095.31;5012799;28;20030;-76
2022/06/01 06:44:15;;;;;;;8.30;4.95;;;;;;;26.32;100.00;100080.34;5012489;28;20359;-76
2022/06/01 06:46:40;;;;;;;9.10;5.20;;;;;;;26.76;100.00;100118.84;5012776;28;20038;-75
2022/06/01 06:49:06;;;;;;;9.93;5.70;;;;;;;27.00;100.00;100110.53;4994314;28;20187;-76
2022/06/01 06:51:32;;;;;;;10.02;5.53;;;;;;;27.00;100.00;100073.97;4995668;28;20033;-76
2022/06/01 06:53:57;;;;;;;9.25;5.15;;;;;;;27.16;100.00;100108.91;5012681;28;20029;-75
2022/06/01 06:56:23;;;;;;;9.85;5.03;;;;;;;26.79;100.00;100121.19;5012691;28;20044;-76
2022/06/01 06:58:49;;;;;;;9.63;5.60;;;;;;;26.72;100.00;100073.09;5012877;28;20037;-76
2022/06/01 07:01:14;;;;;;;9.02;5.63;;;;;;;26.84;100.00;100110.31;4995278;28;20032;-77
2022/06/01 07:03:40;;;;;;;7.57;5.30;;;;;;;27.10;100.00;100086.00;5011597;28;20419;-76
2022/06/01 07:06:09;;;;;;;6.93;4.88;;;;;;;26.88;100.00;100122.13;5012436;28;20042;-76
2022/06/01 07:08:38;;;;;;;7.18;5.38;;;;;;;27.51;100.00;100089.09;4995068;28;20032;-77
2022/06/01 07:11:05;;;;;;;7.63;5.35;;;;;;;27.22;100.00;100092.66;5012028;28;20116;-76
2022/06/01 07:13:32;;;;;;;6.68;4.85;;;;;;;27.64;100.00;100120.91;5012256;28;20485;-76
2022/06/01 07:16:04;;;;;;;6.85;5.63;;;;;;;28.59;100.00;100114.88;4994913;28;20208;-74
2022/06/01 07:18:30;;;;;;;7.68;5.45;;;;;;;27.06;100.00;100104.69;5012239;28;20057;-75
2022/06/01 07:20:55;;;;;;;6.75;5.20;;;;;;;27.09;100.00;100092.19;4994889;28;20121;-75
2022/06/01 07:23:21;;;;;;;7.18;4.85;;;;;;;28.03;98.36;100111.81;4994644;28;20025;-77
2022/06/01 07:25:46;;;;;;;7.40;5.30;;;;;;;28.64;98.41;100064.69;5012469;28;20070;-76
2022/06/01 07:28:12;;;;;;;6.20;5.10;;;;;;;28.38;95.00;100121.41;4994854;28;20052;-76
2022/06/01 07:30:37;;;;;;;9.05;5.10;;;;;;;28.28;94.70;100117.13;5011781;28;20029;-75
2022/06/01 07:33:03;;;;;;;6.53;5.13;;;;;;;29.22;90.13;100111.97;5011982;28;20033;-76
2022/06/01 07:35:28;;;;;;;5.70;5.10;;;;;;;28.33;90.98;100110.59;5012417;28;20500;-76
2022/06/01 07:43:22;;;;;;;6.80;4.90;;;;;;;29.45;84.35;100110.38;5011975;28;20491;-76
2022/06/01 07:45:49;;;;;;;7.45;5.25;;;;;;;29.49;84.86;100109.09;5012716;28;20026;-78
2022/06/01 07:48:16;;;;;;;7.88;5.22;;;;;;;29.56;83.92;100103.03;5012400;28;20492;-78
2022/06/01 07:50:42;;;;;;;11.55;5.38;;;;;;;30.22;82.61;100109.97;4994957;28;20026;-78
2022/06/01 07:53:08;;;;;;;10.10;5.00;;;;;;;29.80;82.73;100079.50;5012340;28;20507;-78
2022/06/01 07:55:35;;;;;;;7.95;5.20;;;;;;;28.54;88.22;100106.66;4994428;28;20068;-79
2022/06/01 07:58:00;;;;;;;9.63;5.63;;;;;;;29.37;86.73;100097.25;5011998;28;20025;-79
2022/06/01 08:00:26;;;;;;;8.27;5.30;;;;;;;30.07;80.67;100098.53;4996006;28;20056;-77
2022/06/01 08:02:52;;;;;;;7.13;4.75;;;;;;;30.24;83.11;100095.72;5015072;28;20042;-76
2022/06/01 08:05:19;;;;;;;8.40;4.43;;;;;;;29.31;84.10;100097.91;5017131;28;20026;-73
2022/06/01 08:07:45;;;;;;;7.28;4.88;;;;;;;29.78;84.02;100063.09;5034423;28;20491;-73
2022/06/01 08:10:13;;;;;;;6.40;4.70;;;;;;;29.32;81.32;100071.53;5033080;28;20037;-74
2022/06/01 08:15:23;;;;;;;8.20;4.88;;;;;;;30.16;82.31;100095.72;5033970;28;20037;-74
2022/06/01 08:17:48;;;;;;;6.57;4.80;;;;;;;30.11;80.11;100097.22;5033067;28;20041;-74
2022/06/01 08:20:15;;;;;;;8.95;4.55;;;;;;;30.19;77.69;100091.97;5033785;28;20038;-72
2022/06/01 08:22:42;;;;;;;8.57;5.20;;;;;;;30.17;78.90;100060.63;5033095;28;20458;-74
2022/06/01 08:25:09;;;;;;;6.72;5.18;;;;;;;30.45;77.13;100096.03;5015121;28;20143;-74
2022/06/01 08:27:35;;;;;;;8.32;5.10;;;;;;;31.05;78.94;100093.75;5015107;28;20133;-75
2022/06/01 08:30:01;;;;;;;9.60;5.07;;;;;;;30.83;74.61;100060.31;5033311;28;20108;-74
2022/06/01 08:32:26;;;;;;;6.25;4.80;;;;;;;31.43;74.07;100089.47;5032840;28;20029;-74
2022/06/01 08:34:52;;;;;;;7.90;5.03;;;;;;;30.63;78.01;100078.28;5032742;28;20136;-74
2022/06/01 08:37:17;;;;;;;8.02;4.82;;;;;;;31.16;75.06;100079.41;5033282;28;20484;-73
2022/06/01 08:39:44;;;;;;;6.50;4.63;;;;;;;30.84;72.52;100074.31;5015680;28;20039;-74
2022/06/01 08:42:16;;;;;;;8.60;5.03;;;;;;;31.57;71.77;100076.38;5015929;28;20063;-75
2022/06/01 08:44:46;;;;;;;9.38;5.18;;;;;;;30.43;75.44;100037.63;5016059;28;20044;-75
2022/06/01 08:47:32;;;;;;;7.88;4.63;;;;;;;31.31;72.52;100075.06;5015796;28;20033;-74
2022/06/01 08:50:03;;;;;;;9.27;4.97;;;;;;;31.07;74.07;100046.28;5031996;28;20472;-73
2022/06/01 08:52:29;;;;;;;10.10;4.88;;;;;;;29.92;75.70;100059.00;5015503;28;20037;-73
2022/06/01 08:54:55;;;;;;;7.82;4.95;;;;;;;31.37;73.83;100072.56;5033423;28;20040;-73
2022/06/01 08:57:36;;;;;;;6.18;5.10;;;;;;;31.11;73.92;100073.84;5015550;28;20030;-73
2022/06/01 09:00:10;;;;;;;10.37;4.80;;;;;;;32.06;70.79;100070.78;5033556;28;20044;-75
2022/06/01 09:02:45;;;;;;;8.82;5.00;;;;;;;31.32;73.46;100074.88;5015629;28;20481;-75
2022/06/01 09:05:39;;;;;;;9.05;5.15;;;;;;;31.92;71.23;100072.38;5015599;28;20034;-74
2022/06/01 09:08:25;;;;;;;10.98;5.07;;;;;;;31.63;70.32;100073.03;5033396;28;20033;-75
2022/06/01 09:11:01;;;;;;;12.43;5.90;;;;;;;32.69;68.69;100070.28;5032951;28;20029;-75
2022/06/01 09:13:36;;;;;;;8.23;4.78;;;;;;;31.31;70.40;100064.53;5015147;28;20061;-74
2022/06/01 09:16:07;;;;;;;9.52;5.25;;;;;;;30.45;71.90;100029.59;5033193;28;20503;-74
2022/06/01 09:18:49;;;;;;;5.93;4.90;;;;;;;32.40;67.40;100077.19;5033224;28;20029;-74
2022/06/01 09:24:28;;;;;;;6.90;4.80;;;;;;;31.21;69.09;100058.69;5032897;28;20048;-74
2022/06/01 09:27:07;;;;;;;6.78;4.80;;;;;;;32.64;65.60;100067.41;5032760;28;20029;-74
2022/06/01 09:29:55;;;;;;;11.65;5.50;;;;;;;32.57;64.68;100075.22;5032812;28;20033;-74
2022/06/01 09:32:40;;;;;;;7.47;4.18;;;;;;;30.65;64.74;100028.22;5014620;28;20435;-74
2022/06/01 09:35:09;;;;;;;6.82;3.92;;;;;;;31.18;68.29;100090.59;5014723;28;20471;-74
2022/06/01 09:37:45;;;;;;;8.10;3.95;;;;;;;29.76;76.60;100044.09;5014895;28;20060;-74
2022/06/01 09:40:28;;;;;;;10.73;4.22;;;;;;;30.58;77.79;100085.81;5014162;28;20052;-74
2022/06/01 09:42:54;;;;;;;7.75;4.55;;;;;;;28.94;92.08;100083.31;5015083;28;20033;-75
2022/06/01 09:45:27;;;;;;;9.63;4.78;;;;;;;28.61;100.00;100081.53;5032273;28;20044;-74
2022/06/01 09:47:54;;;;;;;7.65;4.88;;;;;;;28.26;100.00;100044.97;5032300;28;20053;-74
2022/06/01 09:50:25;;;;;;;13.30;5.45;;;;;;;29.03;100.00;100086.81;5032177;28;20040;-74
2022/06/01 09:52:54;;;;;;;;;;;;;;;27.01;100.00;100079.03;5015926;28;20040;-76
2022/06/01 09:55:23;;;;;;;33.35;12.10;;;;;;;26.15;100.00;100071.44;5032226;28;20323;-73
2022/06/01 09:58:08;;;;;;;22.27;9.50;;;;;;;25.15;100.00;100058.75;5031770;28;20056;-73
2022/06/01 10:06:31;;;;;;;12.75;7.68;;;;;;;26.05;100.00;100075.81;5032128;28;20474;-73
2022/06/01 10:09:03;;;;;;;10.27;6.40;;;;;;;25.78;100.00;100068.72;5031783;28;20032;-73
2022/06/01 10:11:42;;;;;;;9.20;6.28;;;;;;;25.41;100.00;100056.50;5014246;28;20041;-73
2022/06/01 10:14:08;;;;;;;7.65;5.78;;;;;;;25.91;100.00;100057.19;5031614;28;20041;-71
2022/06/01 10:16:42;;;;;;;9.35;7.05;;;;;;;26.14;100.00;100045.53;5031479;28;20133;-74
2022/06/01 10:19:12;;;;;;;9.52;6.30;;;;;;;25.22;100.00;100062.44;5031752;28;20034;-74
2022/06/01 10:21:58;;;;;;;11.48;8.13;;;;;;;25.67;100.00;100062.81;5013807;28;20036;-73
2022/06/01 10:24:35;;;;;;;10.45;6.35;;;;;;;25.20;100.00;100066.97;5031610;28;20030;-73
2022/06/01 10:27:03;;;;;;;11.38;6.30;;;;;;;25.21;100.00;100052.16;5031715;28;20120;-73
2022/06/01 10:29:37;;;;;;;6.50;5.32;;;;;;;25.36;100.00;100063.84;5031561;28;20408;-73
2022/06/01 10:32:05;;;;;;;8.07;5.20;;;;;;;25.24;100.00;100096.16;5031305;28;20527;-73
2022/06/01 10:34:34;;;;;;;6.85;4.10;;;;;;;25.01;100.00;100072.13;5031532;28;20037;-73
2022/06/01 10:37:18;;;;;;;7.47;4.20;;;;;;;25.33;100.00;100106.59;5013632;28;20075;-73
2022/06/01 10:39:51;;;;;;;4.75;3.13;;;;;;;25.20;100.00;100100.78;5013746;28;20041;-73
2022/06/01 10:45:45;;;;;;;8.18;3.65;;;;;;;25.14;100.00;100059.69;5031759;28;20052;-74
2022/06/01 10:48:20;;;;;;;4.78;3.30;;;;;;;24.98;100.00;100050.75;5014129;28;20423;-73
2022/06/01 10:50:57;;;;;;;9.95;3.33;;;;;;;25.22;100.00;100072.03;5013612;28;20025;-73
2022/06/01 10:53:22;;;;;;;5.45;3.05;;;;;;;25.27;100.00;100072.47;5031343;28;20103;-74
2022/06/01 10:55:48;;;;;;;5.20;2.80;;;;;;;25.36;100.00;100069.03;5031263;28;20041;-74
2022/06/01 10:58:22;;;;;;;3.10;2.60;;;;;;;25.40;100.00;100071.28;5031732;28;20033;-73
2022/06/01 11:00:53;;;;;;;3.90;2.60;;;;;;;25.85;100.00;100073.38;5013902;28;20458;-74
2022/06/01 11:03:34;;;;;;;5.67;2.90;;;;;;;25.77;100.00;100074.88;5031469;28;20033;-74
2022/06/01 11:06:14;;;;;;;8.37;3.37;;;;;;;25.70;100.00;100058.16;5013803;28;20139;-72
2022/06/01 11:08:50;;;;;;;7.90;3.00;;;;;;;25.92;100.00;100080.50;5013852;28;20088;-74
2022/06/01 11:11:22;;;;;;;5.32;3.40;;;;;;;26.39;100.00;100073.59;5030923;28;20529;-72
2022/06/01 11:13:58;;;;;;;5.00;3.13;;;;;;;27.24;100.00;100079.47;5030865;28;20513;-73
2022/06/01 11:16:32;;;;;;;5.25;3.33;;;;;;;27.82;100.00;100072.06;5031105;28;20513;-74
2022/06/01 11:19:33;;;;;;;6.03;3.38;;;;;;;27.89;100.00;100075.75;5031293;28;20032;-74
2022/06/01 11:22:35;;;;;;;4.20;3.78;;;;;;;27.84;100.00;100080.59;5031018;28;20088;-75
2022/06/01 11:25:38;;;;;;;4.65;4.03;;;;;;;27.43;100.00;100082.00;5013691;28;20104;-74
2022/06/01 11:28:13;;;;;;;5.25;4.10;;;;;;;28.03;100.00;100083.06;5029872;28;20058;-74
2022/06/01 11:30:56;;;;;;;6.18;4.45;;;;;;;28.34;100.00;100078.22;5030593;28;20034;-74
2022/06/01 11:33:41;;;;;;;5.32;4.35;;;;;;;28.35;100.00;100079.84;5013586;28;20095;-74
2022/06/01 11:36:32;;;;;;;7.22;4.68;;;;;;;28.02;100.00;100066.56;5034041;28;20109;-74
2022/06/01 11:39:22;;;;;;;9.07;5.40;;;;;;;28.08;100.00;100036.34;5017121;28;20163;-73
2022/06/01 11:42:08;;;;;;;3.97;3.10;;;;;;;27.34;100.00;100035.84;5034894;28;20060;-73
2022/06/01 11:44:37;;;;;;;4.88;2.88;;;;;;;27.57;100.00;100057.97;5034630;28;20029;-73
2022/06/01 11:47:11;;;;;;;3.20;2.40;;;;;;;27.24;96.48;100055.94;5034710;28;20029;-73
2022/06/01 11:49:42;;;;;;;3.20;2.50;;;;;;;27.34;90.80;100031.44;5034189;28;20415;-73
2022/06/01 11:52:22;;;;;;;4.05;2.78;;;;;;;27.58;93.67;100050.94;5034568;28;20111;-73